createdAt,value
2022-12-18T00:01:27.105Z,100301.22
2022-12-18T00:03:56.108Z,100310.19
2022-12-18T00:06:26.568Z,100308.56
2022-12-18T00:08:55.795Z,100322.47
2022-12-18T00:11:27.888Z,100337.63
2022-12-18T00:13:58.043Z,100341.09
2022-12-18T00:16:27.015Z,100348.97
2022-12-18T00:18:59.903Z,100356.50
2022-12-18T00:21:30.042Z,100362.28
2022-12-18T00:23:58.610Z,100354.50
2022-12-18T00:26:28.732Z,100365.94
2022-12-18T00:29:01.271Z,100374.81
2022-12-18T00:31:31.906Z,100378.47
2022-12-18T00:34:00.762Z,100379.19
2022-12-18T00:36:30.857Z,100373.41
2022-12-18T00:38:59.914Z,100372.09
2022-12-18T00:41:47.015Z,100380.53
2022-12-18T00:44:16.379Z,100374.72
2022-12-18T00:46:44.926Z,100377.13
2022-12-18T00:49:21.255Z,100379.03
2022-12-18T00:51:49.691Z,100391.00
2022-12-18T00:54:18.541Z,100383.22
2022-12-18T00:56:49.225Z,100377.94
2022-12-18T00:59:18.641Z,100391.00
2022-12-18T01:01:47.132Z,100393.81
2022-12-18T01:04:15.251Z,100395.16
2022-12-18T01:06:46.503Z,100400.66
2022-12-18T01:09:14.111Z,100408.47
2022-12-18T01:11:41.742Z,100408.78
2022-12-18T01:14:09.738Z,100410.53
2022-12-18T01:16:38.673Z,100419.31
2022-12-18T01:19:06.333Z,100407.38
2022-12-18T01:21:34.158Z,100414.53
2022-12-18T01:24:05.709Z,100411.03
2022-12-18T01:26:33.940Z,100416.63
2022-12-18T01:29:01.503Z,100412.19
2022-12-18T01:31:32.515Z,100415.63
2022-12-18T01:34:04.538Z,100418.72
2022-12-18T01:36:37.293Z,100423.06
2022-12-18T01:39:12.123Z,100426.47
2022-12-18T01:42:02.094Z,100416.31
2022-12-18T01:45:09.765Z,100432.69
2022-12-18T01:47:48.125Z,100432.94
2022-12-18T01:50:30.059Z,100440.38
2022-12-18T01:53:17.925Z,100446.53
2022-12-18T01:55:57.709Z,100440.09
2022-12-18T01:58:50.464Z,100442.19
2022-12-18T02:01:18.095Z,100440.69
2022-12-18T02:03:46.117Z,100443.25
2022-12-18T02:06:32.545Z,100444.09
2022-12-18T02:09:11.472Z,100459.72
2022-12-18T02:12:21.875Z,100457.59
2022-12-18T02:15:20.407Z,100463.94
2022-12-18T02:17:56.856Z,100464.91
2022-12-18T02:20:28.624Z,100468.16
2022-12-18T02:23:07.665Z,100470.72
2022-12-18T02:25:48.448Z,100471.56
2022-12-18T02:28:20.064Z,100480.28
2022-12-18T02:30:52.907Z,100480.09
2022-12-18T02:33:26.553Z,100483.16
2022-12-18T02:35:57.106Z,100478.25
2022-12-18T02:38:26.410Z,100487.53
2022-12-18T02:40:56.206Z,100493.59
2022-12-18T02:43:23.768Z,100496.38
2022-12-18T02:45:57.157Z,100493.16
2022-12-18T02:48:36.354Z,100496.38
2022-12-18T02:51:15.241Z,100492.97
2022-12-18T02:53:46.610Z,100492.78
2022-12-18T02:56:22.560Z,100494.47
2022-12-18T02:58:53.628Z,100504.88
2022-12-18T03:02:18.017Z,100509.56
2022-12-18T03:05:12.966Z,100510.53
2022-12-18T03:07:50.121Z,100511.81
2022-12-18T03:10:22.815Z,100505.84
2022-12-18T03:12:59.607Z,100516.63
2022-12-18T03:15:36.347Z,100517.75
2022-12-18T03:18:15.990Z,100521.84
2022-12-18T03:20:47.117Z,100531.53
2022-12-18T03:23:37.417Z,100529.28
2022-12-18T03:26:10.880Z,100534.41
2022-12-18T03:28:52.519Z,100531.28
2022-12-18T03:31:23.862Z,100546.06
2022-12-18T03:33:55.701Z,100544.22
2022-12-18T03:36:32.010Z,100558.09
2022-12-18T03:39:00.002Z,100555.03
2022-12-18T03:42:00.427Z,100570.50
2022-12-18T03:44:46.037Z,100565.75
2022-12-18T03:47:34.759Z,100566.63
2022-12-18T03:50:23.203Z,100575.34
2022-12-18T03:53:10.718Z,100569.03
2022-12-18T03:55:41.541Z,100574.56
2022-12-18T03:58:14.167Z,100566.25
2022-12-18T04:00:55.528Z,100579.16
2022-12-18T04:03:26.676Z,100582.75
2022-12-18T04:05:57.805Z,100580.09
2022-12-18T04:08:26.640Z,100579.81
2022-12-18T04:11:03.279Z,100586.91
2022-12-18T04:13:36.762Z,100583.44
2022-12-18T04:16:08.137Z,100585.28
2022-12-18T04:18:36.834Z,100586.59
2022-12-18T04:21:04.930Z,100581.25
2022-12-18T04:23:34.172Z,100588.75
2022-12-18T04:26:02.666Z,100595.63
2022-12-18T04:28:47.853Z,100587.13
2022-12-18T04:31:16.499Z,100597.97
2022-12-18T04:33:44.569Z,100599.00
2022-12-18T04:36:13.458Z,100592.22
2022-12-18T04:38:41.648Z,100600.81
2022-12-18T04:41:16.285Z,100607.13
2022-12-18T04:43:46.705Z,100609.44
2022-12-18T04:46:14.527Z,100616.94
2022-12-18T04:48:42.115Z,100619.47
2022-12-18T04:51:09.727Z,100624.84
2022-12-18T04:53:37.620Z,100623.88
2022-12-18T04:56:16.830Z,100627.63
2022-12-18T04:58:45.825Z,100640.47
2022-12-18T05:01:16.231Z,100643.25
2022-12-18T05:03:44.550Z,100647.75
2022-12-18T05:06:12.359Z,100644.31
2022-12-18T05:08:39.870Z,100649.19
2022-12-18T05:11:09.989Z,100647.31
2022-12-18T05:13:39.342Z,100648.25
2022-12-18T05:16:07.781Z,100649.88
2022-12-18T05:18:35.763Z,100656.13
2022-12-18T05:21:03.575Z,100652.88
2022-12-18T05:23:31.198Z,100655.69
2022-12-18T05:26:01.826Z,100660.28
2022-12-18T05:28:31.337Z,100655.06
2022-12-18T05:31:01.672Z,100655.31
2022-12-18T05:33:32.750Z,100659.72
2022-12-18T05:36:05.416Z,100662.59
2022-12-18T05:38:35.078Z,100667.22
2022-12-18T05:41:04.297Z,100665.50
2022-12-18T05:43:34.644Z,100673.06
2022-12-18T05:46:07.263Z,100674.03
2022-12-18T05:48:35.275Z,100678.38
2022-12-18T05:51:09.649Z,100684.88
2022-12-18T05:53:38.966Z,100682.94
2022-12-18T05:56:09.747Z,100683.75
2022-12-18T05:58:38.240Z,100683.78
2022-12-18T06:01:12.680Z,100684.28
2022-12-18T06:03:40.767Z,100688.91
2022-12-18T06:06:25.925Z,100691.56
2022-12-18T06:08:55.425Z,100690.78
2022-12-18T06:11:25.462Z,100698.69
2022-12-18T06:13:59.050Z,100692.44
2022-12-18T06:16:28.736Z,100694.47
2022-12-18T06:19:04.780Z,100697.78
2022-12-18T06:21:33.248Z,100703.00
2022-12-18T06:24:01.276Z,100703.84
2022-12-18T06:26:28.920Z,100711.56
2022-12-18T06:28:56.541Z,100712.53
2022-12-18T06:31:24.714Z,100714.81
2022-12-18T06:33:52.533Z,100722.47
2022-12-18T06:36:21.299Z,100735.03
2022-12-18T06:38:48.890Z,100735.78
2022-12-18T06:41:22.096Z,100733.25
2022-12-18T06:43:50.196Z,100748.84
2022-12-18T06:46:17.795Z,100743.34
2022-12-18T06:48:49.680Z,100746.72
2022-12-18T06:51:22.283Z,100745.41
2022-12-18T06:53:49.901Z,100749.22
2022-12-18T06:56:17.736Z,100748.34
2022-12-18T06:58:45.375Z,100755.44
2022-12-18T07:01:14.296Z,100760.44
2022-12-18T07:03:43.560Z,100754.41
2022-12-18T07:06:16.784Z,100756.94
2022-12-18T07:08:45.239Z,100764.25
2022-12-18T07:11:13.380Z,100762.66
2022-12-18T07:13:41.398Z,100774.09
2022-12-18T07:16:18.355Z,100781.88
2022-12-18T07:18:49.788Z,100786.22
2022-12-18T07:21:19.932Z,100786.59
2022-12-18T07:23:49.212Z,100791.72
2022-12-18T07:26:19.806Z,100796.19
2022-12-18T07:28:48.030Z,100796.41
2022-12-18T07:31:18.899Z,100804.66
2022-12-18T07:33:47.400Z,100808.81
2022-12-18T07:36:15.429Z,100802.53
2022-12-18T07:38:43.364Z,100816.69
2022-12-18T07:41:13.517Z,100816.75
2022-12-18T07:43:42.627Z,100813.97
2022-12-18T07:46:11.273Z,100824.00
2022-12-18T07:48:45.553Z,100828.16
2022-12-18T07:51:18.542Z,100818.81
2022-12-18T07:53:46.977Z,100821.13
2022-12-18T07:56:27.119Z,100829.56
2022-12-18T07:58:55.706Z,100823.94
2022-12-18T08:01:23.532Z,100827.16
2022-12-18T08:03:52.247Z,100825.66
2022-12-18T08:06:22.762Z,100825.88
2022-12-18T08:08:56.372Z,100826.81
2022-12-18T08:11:25.285Z,100826.00
2022-12-18T08:13:53.240Z,100831.63
2022-12-18T08:16:22.097Z,100830.47
2022-12-18T08:18:50.474Z,100831.53
2022-12-18T08:21:25.351Z,100835.03
2022-12-18T08:23:54.804Z,100840.56
2022-12-18T08:26:22.498Z,100842.31
2022-12-18T08:28:51.108Z,100839.41
2022-12-18T08:31:20.128Z,100846.69
2022-12-18T08:33:53.215Z,100839.13
2022-12-18T08:36:22.650Z,100849.47
2022-12-18T08:38:50.832Z,100851.72
2022-12-18T08:41:21.769Z,100857.09
2022-12-18T08:44:07.753Z,100842.88
2022-12-18T08:46:39.521Z,100859.00
2022-12-18T08:49:09.389Z,100853.75
2022-12-18T08:51:37.200Z,100858.03
2022-12-18T08:54:06.473Z,100853.16
2022-12-18T08:56:35.121Z,100861.72
2022-12-18T08:59:03.197Z,100857.69
2022-12-18T09:01:31.554Z,100859.00
2022-12-18T09:03:59.603Z,100860.16
2022-12-18T09:06:27.545Z,100872.22
2022-12-18T09:08:55.156Z,100868.41
2022-12-18T09:11:27.757Z,100877.63
2022-12-18T09:13:56.785Z,100874.78
2022-12-18T09:16:31.660Z,100884.25
2022-12-18T09:19:00.603Z,100878.47
2022-12-18T09:21:31.610Z,100873.00
2022-12-18T09:24:00.964Z,100887.78
2022-12-18T09:26:28.823Z,100871.66
2022-12-18T09:28:56.939Z,100877.25
2022-12-18T09:31:25.867Z,100888.66
2022-12-18T09:33:56.755Z,100875.19
2022-12-18T09:36:24.462Z,100869.13
2022-12-18T09:38:54.112Z,100887.19
2022-12-18T09:41:27.908Z,100880.63
2022-12-18T09:44:01.912Z,100882.31
2022-12-18T09:46:41.016Z,100886.63
2022-12-18T09:49:14.492Z,100894.19
2022-12-18T09:51:58.485Z,100892.97
2022-12-18T09:54:51.026Z,100877.47
2022-12-18T09:57:23.260Z,100876.34
2022-12-18T10:00:20.054Z,100878.25
2022-12-18T10:02:48.373Z,100875.25
2022-12-18T10:05:44.791Z,100879.06
2022-12-18T10:08:30.145Z,100866.56
2022-12-18T10:11:04.660Z,100875.00
2022-12-18T10:14:04.636Z,100870.19
2022-12-18T10:16:47.051Z,100872.63
2022-12-18T10:19:20.221Z,100876.88
2022-12-18T10:22:00.420Z,100875.16
2022-12-18T10:24:32.172Z,100877.41
2022-12-18T10:27:15.517Z,100869.06
2022-12-18T10:29:45.610Z,100868.78
2022-12-18T10:32:20.171Z,100868.72
2022-12-18T10:34:49.318Z,100876.91
2022-12-18T10:37:20.359Z,100875.19
2022-12-18T10:40:08.243Z,100873.38
2022-12-18T10:42:35.873Z,100870.41
2022-12-18T10:45:16.620Z,100874.13
2022-12-18T10:47:47.304Z,100880.63
2022-12-18T10:51:09.791Z,100880.66
2022-12-18T10:53:30.725Z,100879.84
2022-12-18T10:56:07.454Z,100879.72
2022-12-18T10:58:40.008Z,100872.22
2022-12-18T11:01:21.205Z,100867.34
2022-12-18T11:03:51.604Z,100879.75
2022-12-18T11:06:22.818Z,100865.28
2022-12-18T11:09:00.376Z,100859.41
2022-12-18T11:11:28.479Z,100860.94
2022-12-18T11:14:16.204Z,100851.88
2022-12-18T11:17:03.222Z,100859.81
2022-12-18T11:19:39.744Z,100844.53
2022-12-18T11:22:29.956Z,100854.03
2022-12-18T11:25:30.925Z,100848.31
2022-12-18T11:27:57.098Z,100853.81
2022-12-18T11:30:36.188Z,100855.19
2022-12-18T11:33:14.215Z,100851.44
2022-12-18T11:35:50.775Z,100846.97
2022-12-18T11:38:27.536Z,100847.69
2022-12-18T11:41:06.847Z,100842.19
2022-12-18T11:43:51.154Z,100833.31
2022-12-18T11:46:40.650Z,100825.75
2022-12-18T11:49:21.729Z,100824.78
2022-12-18T11:51:51.483Z,100831.66
2022-12-18T11:54:19.215Z,100829.19
2022-12-18T11:56:54.663Z,100828.56
2022-12-18T11:59:35.617Z,100827.94
2022-12-18T12:02:24.465Z,100825.00
2022-12-18T12:05:34.485Z,100823.63
2022-12-18T12:08:16.271Z,100826.66
2022-12-18T12:11:03.856Z,100823.97
2022-12-18T12:13:31.639Z,100821.84
2022-12-18T12:16:10.462Z,100815.41
2022-12-18T12:19:16.630Z,100826.44
2022-12-18T12:21:54.001Z,100819.00
2022-12-18T12:24:43.250Z,100828.47
2022-12-18T12:27:35.621Z,100817.44
2022-12-18T12:30:20.336Z,100826.34
2022-12-18T12:33:16.459Z,100833.91
2022-12-18T12:35:47.561Z,100819.56
2022-12-18T12:38:24.090Z,100828.00
2022-12-18T12:41:03.059Z,100828.81
2022-12-18T12:46:37.815Z,100835.53
2022-12-18T12:49:19.378Z,100841.44
2022-12-18T12:52:11.197Z,100844.88
2022-12-18T12:54:39.759Z,100858.16
2022-12-18T12:57:10.340Z,100854.16
2022-12-18T12:59:47.410Z,100854.97
2022-12-18T13:02:34.561Z,100849.19
2022-12-18T13:05:34.102Z,100858.88
2022-12-18T13:08:08.375Z,100869.25
2022-12-18T13:10:37.980Z,100871.25
2022-12-18T13:13:13.395Z,100869.53
2022-12-18T13:15:46.981Z,100866.56
2022-12-18T13:18:23.654Z,100872.28
2022-12-18T13:21:03.404Z,100880.41
2022-12-18T13:23:40.046Z,100871.13
2022-12-18T13:26:10.935Z,100877.09
2022-12-18T13:28:48.579Z,100884.53
2022-12-18T13:31:31.938Z,100875.06
2022-12-18T13:34:29.565Z,100881.78
2022-12-18T13:37:32.405Z,100879.34
2022-12-18T13:40:00.277Z,100881.91
2022-12-18T13:42:49.412Z,100883.84
2022-12-18T13:45:38.682Z,100890.69
2022-12-18T13:48:17.148Z,100892.41
2022-12-18T13:50:50.494Z,100908.03
2022-12-18T13:53:25.819Z,100903.47
2022-12-18T13:55:56.118Z,100905.09
2022-12-18T13:58:24.295Z,100908.25
2022-12-18T14:00:52.428Z,100902.69
2022-12-18T14:03:28.955Z,100902.47
2022-12-18T14:06:09.168Z,100909.38
2022-12-18T14:08:43.832Z,100910.28
2022-12-18T14:11:22.971Z,100914.84
2022-12-18T14:13:51.150Z,100910.09
2022-12-18T14:16:19.305Z,100914.66
2022-12-18T14:18:59.831Z,100911.50
2022-12-18T14:21:40.396Z,100910.13
2022-12-18T14:24:21.136Z,100912.47
2022-12-18T14:26:50.784Z,100917.69
2022-12-18T14:29:31.887Z,100919.38
2022-12-18T14:32:16.891Z,100920.63
2022-12-18T14:34:50.647Z,100921.53
2022-12-18T14:37:22.598Z,100930.53
2022-12-18T14:40:19.098Z,100932.84
2022-12-18T14:42:46.611Z,100936.88
2022-12-18T14:45:43.843Z,100947.06
2022-12-18T14:48:23.206Z,100945.66
2022-12-18T14:51:04.059Z,100955.63
2022-12-18T14:53:41.741Z,100957.78
2022-12-18T14:56:25.729Z,100960.50
2022-12-18T14:59:05.701Z,100967.25
2022-12-18T15:01:38.090Z,100967.53
2022-12-18T15:04:24.099Z,100967.34
2022-12-18T15:07:10.482Z,100968.44
2022-12-18T15:09:39.138Z,100974.78
2022-12-18T15:12:33.990Z,100981.34
2022-12-18T15:15:02.169Z,100982.88
2022-12-18T15:17:30.883Z,100985.03
2022-12-18T15:20:04.478Z,100987.03
2022-12-18T15:22:36.458Z,100994.84
2022-12-18T15:25:30.762Z,100995.16
2022-12-18T15:27:58.908Z,101002.69
2022-12-18T15:30:27.017Z,101003.38
2022-12-18T15:33:24.123Z,101005.03
2022-12-18T15:35:59.576Z,101023.94
2022-12-18T15:38:27.872Z,101021.81
2022-12-18T15:40:56.063Z,101018.75
2022-12-18T15:43:34.734Z,101027.78
2022-12-18T15:46:07.883Z,101032.19
2022-12-18T15:48:43.324Z,101039.81
2022-12-18T15:51:30.105Z,101036.16
2022-12-18T15:54:01.638Z,101033.03
2022-12-18T15:56:47.838Z,101034.84
2022-12-18T15:59:18.720Z,101034.38
2022-12-18T16:01:49.666Z,101045.59
2022-12-18T16:04:21.625Z,101043.53
2022-12-18T16:09:38.034Z,101046.06
2022-12-18T16:12:07.586Z,101048.31
2022-12-18T16:14:35.405Z,101050.41
2022-12-18T16:17:06.499Z,101054.56
2022-12-18T16:19:34.023Z,101061.84
2022-12-18T16:22:05.929Z,101062.84
2022-12-18T16:24:37.086Z,101074.94
2022-12-18T16:27:04.756Z,101071.00
2022-12-18T16:29:32.644Z,101078.84
2022-12-18T16:32:01.551Z,101073.47
2022-12-18T16:34:34.871Z,101068.38
2022-12-18T16:37:06.456Z,101076.25
2022-12-18T16:39:35.728Z,101078.94
2022-12-18T16:42:15.506Z,101084.56
2022-12-18T16:44:43.917Z,101083.84
2022-12-18T16:47:14.995Z,101092.66
2022-12-18T16:49:45.900Z,101090.81
2022-12-18T16:52:14.570Z,101092.41
2022-12-18T16:54:42.421Z,101091.81
2022-12-18T16:57:13.545Z,101085.06
2022-12-18T16:59:41.496Z,101091.25
2022-12-18T17:02:23.616Z,101081.03
2022-12-18T17:04:54.915Z,101082.53
2022-12-18T17:07:24.769Z,101080.84
2022-12-18T17:09:54.078Z,101082.00
2022-12-18T17:12:22.386Z,101068.25
2022-12-18T17:14:50.205Z,101071.25
2022-12-18T17:17:21.785Z,101068.16
2022-12-18T17:19:52.190Z,101071.94
2022-12-18T17:22:23.376Z,101068.97
2022-12-18T17:24:50.977Z,101068.06
2022-12-18T17:27:19.977Z,101064.00
2022-12-18T17:29:48.805Z,101071.66
2022-12-18T17:32:17.571Z,101077.78
2022-12-18T17:34:45.332Z,101081.16
2022-12-18T17:37:13.250Z,101087.41
2022-12-18T17:39:42.130Z,101089.22
2022-12-18T17:42:14.892Z,101096.41
2022-12-18T17:44:44.545Z,101096.66
2022-12-18T17:47:14.166Z,101101.94
2022-12-18T17:49:42.071Z,101101.69
2022-12-18T17:52:10.272Z,101095.63
2022-12-18T17:54:39.964Z,101089.66
2022-12-18T17:57:08.289Z,101098.25
2022-12-18T17:59:36.052Z,101091.53
2022-12-18T18:02:04.070Z,101083.78
2022-12-18T18:04:32.668Z,101086.38
2022-12-18T18:07:00.174Z,101095.88
2022-12-18T18:09:27.717Z,101099.25
2022-12-18T18:12:15.904Z,101106.22
2022-12-18T18:14:45.482Z,101096.94
2022-12-18T18:17:14.636Z,101096.06
2022-12-18T18:19:44.153Z,101091.91
2022-12-18T18:22:20.076Z,101093.66
2022-12-18T18:24:47.877Z,101099.59
2022-12-18T18:27:15.741Z,101101.50
2022-12-18T18:29:43.300Z,101103.09
2022-12-18T18:32:13.175Z,101100.41
2022-12-18T18:34:41.019Z,101114.44
2022-12-18T18:37:09.514Z,101118.66
2022-12-18T18:39:37.386Z,101124.91
2022-12-18T18:42:05.575Z,101131.06
2022-12-18T18:44:33.385Z,101127.69
2022-12-18T18:47:01.414Z,101128.53
2022-12-18T18:49:31.929Z,101130.22
2022-12-18T18:51:59.497Z,101131.94
2022-12-18T18:54:27.954Z,101137.09
2022-12-18T18:59:47.224Z,101133.72
2022-12-18T19:02:17.084Z,101129.41
2022-12-18T19:04:46.334Z,101131.88
2022-12-18T19:07:29.994Z,101137.09
2022-12-18T19:10:04.672Z,101141.41
2022-12-18T19:12:52.793Z,101143.03
2022-12-18T19:15:22.551Z,101143.09
2022-12-18T19:17:50.570Z,101151.78
2022-12-18T19:20:19.022Z,101150.91
2022-12-18T19:22:52.221Z,101152.81
2022-12-18T19:25:30.682Z,101151.19
2022-12-18T19:28:18.205Z,101158.16
2022-12-18T19:30:58.975Z,101162.38
2022-12-18T19:33:45.380Z,101161.53
2022-12-18T19:36:20.462Z,101155.59
2022-12-18T19:38:50.987Z,101161.69
2022-12-18T19:41:19.900Z,101166.81
2022-12-18T19:43:49.672Z,101165.09
2022-12-18T19:46:21.043Z,101164.31
2022-12-18T19:48:49.143Z,101168.66
2022-12-18T19:51:22.855Z,101169.47
2022-12-18T19:53:57.881Z,101182.41
2022-12-18T19:56:29.319Z,101182.47
2022-12-18T19:58:57.210Z,101171.34
2022-12-18T20:01:26.300Z,101174.72
2022-12-18T20:03:55.077Z,101175.66
2022-12-18T20:06:47.206Z,101175.63
2022-12-18T20:09:16.505Z,101174.00
2022-12-18T20:11:44.307Z,101183.41
2022-12-18T20:14:13.998Z,101182.59
2022-12-18T20:16:42.130Z,101188.53
2022-12-18T20:19:12.735Z,101184.25
2022-12-18T20:21:41.542Z,101191.22
2022-12-18T20:24:09.450Z,101200.63
2022-12-18T20:26:37.928Z,101203.16
2022-12-18T20:29:05.695Z,101206.59
2022-12-18T20:31:35.032Z,101202.34
2022-12-18T20:34:04.835Z,101209.09
2022-12-18T20:36:35.097Z,101203.94
2022-12-18T20:39:06.498Z,101204.75
2022-12-18T20:41:38.019Z,101202.13
2022-12-18T20:44:21.827Z,101199.47
2022-12-18T20:46:53.818Z,101196.09
2022-12-18T20:49:21.682Z,101210.63
2022-12-18T20:51:57.598Z,101207.13
2022-12-18T20:54:27.362Z,101210.47
2022-12-18T20:56:56.436Z,101203.69
2022-12-18T20:59:25.664Z,101212.34
2022-12-18T21:01:56.234Z,101220.03
2022-12-18T21:04:24.529Z,101219.16
2022-12-18T21:06:57.929Z,101218.22
2022-12-18T21:09:37.342Z,101217.44
2022-12-18T21:12:40.506Z,101221.72
2022-12-18T21:15:28.355Z,101227.75
2022-12-18T21:17:56.328Z,101225.94
2022-12-18T21:20:23.861Z,101217.44
2022-12-18T21:22:51.545Z,101213.13
2022-12-18T21:25:21.521Z,101206.22
2022-12-18T21:27:49.073Z,101204.53
2022-12-18T21:30:17.071Z,101206.25
2022-12-18T21:32:46.323Z,101207.97
2022-12-18T21:35:14.016Z,101210.56
2022-12-18T21:37:41.657Z,101202.88
2022-12-18T21:40:10.041Z,101195.06
2022-12-18T21:42:56.302Z,101195.91
2022-12-18T21:45:23.796Z,101197.69
2022-12-18T21:47:51.464Z,101200.44
2022-12-18T21:50:19.389Z,101200.28
2022-12-18T21:52:47.949Z,101200.31
2022-12-18T21:55:15.587Z,101198.59
2022-12-18T21:57:43.120Z,101202.06
2022-12-18T22:00:19.282Z,101197.00
2022-12-18T22:03:15.451Z,101198.28
2022-12-18T22:05:36.685Z,101195.47
2022-12-18T22:08:04.433Z,101197.47
2022-12-18T22:10:32.066Z,101194.13
2022-12-18T22:12:59.517Z,101191.47
2022-12-18T22:15:27.099Z,101192.59
2022-12-18T22:18:00.005Z,101194.34
2022-12-18T22:20:31.550Z,101196.09
2022-12-18T22:22:59.555Z,101191.00
2022-12-18T22:25:34.818Z,101204.03
2022-12-18T22:28:22.176Z,101200.44
2022-12-18T22:30:49.747Z,101200.09
2022-12-18T22:33:20.586Z,101198.28
2022-12-18T22:35:48.113Z,101191.38
2022-12-18T22:38:19.043Z,101201.63
2022-12-18T22:40:46.542Z,101202.34
2022-12-18T22:43:14.279Z,101206.69
2022-12-18T22:45:42.414Z,101206.78
2022-12-18T22:48:09.975Z,101198.97
2022-12-18T22:50:37.448Z,101203.13
2022-12-18T22:53:07.739Z,101206.84
2022-12-18T22:55:37.223Z,101213.63
2022-12-18T22:58:04.655Z,101203.94
2022-12-18T23:00:32.120Z,101207.53
2022-12-18T23:03:00.869Z,101208.31
2022-12-18T23:05:30.618Z,101209.19
2022-12-18T23:07:59.255Z,101211.66
2022-12-18T23:10:27.480Z,101211.59
2022-12-18T23:12:55.130Z,101206.44
2022-12-18T23:15:27.263Z,101208.34
2022-12-18T23:17:57.685Z,101215.69
2022-12-18T23:20:27.215Z,101224.00
2022-12-18T23:22:54.966Z,101223.47
2022-12-18T23:25:22.705Z,101220.94
2022-12-18T23:27:50.392Z,101219.25
2022-12-18T23:30:18.013Z,101209.84
2022-12-18T23:32:45.497Z,101215.00
2022-12-18T23:35:12.978Z,101204.94
2022-12-18T23:38:00.219Z,101209.88
2022-12-18T23:40:29.446Z,101206.56
2022-12-18T23:42:57.239Z,101203.81
2022-12-18T23:45:24.740Z,101204.56
2022-12-18T23:47:52.334Z,101209.59
2022-12-18T23:50:19.898Z,101210.47
2022-12-18T23:52:52.900Z,101212.53
2022-12-18T23:55:20.368Z,101209.72
2022-12-18T23:57:47.834Z,101212.34
